Terminal Aerodrome Forecast
Issued by NWS

Current Version | Previous Version | Text Only | Print | Product List | Glossary Off
Versions: 1 2 3 4 5 6 7 8 9 10 11 12 13 14 15 16 17 18 19 20 21 22 23

000
FTUS41 KILN 181700
TAFLCK
TAF
KLCK 181728Z 1818/1918 31012G20KT P6SM VCSH OVC025
      TEMPO 1820/1823 -SHRA
     FM182300 32012G18KT P6SM BKN018
     FM190200 33010KT P6SM OVC015
     FM191100 31004KT P6SM SCT025
     FM191500 28005KT P6SM FEW040=

USA.gov is the U.S. government's official web portal to all federal, state and local government web resources and services.